Time;durP1;ratioP1;P1;durP2;ratioP2;P2;SDS_P1;SDS_P2;PMS_P1;PMS_P2;Temp;Humidity;BMP_temperature;BMP_pressure;BME280_temperature;BME280_humidity;BME280_pressure;Samples;Min_cycle;Max_cycle;Signal;HPM_P1;HPM_P2
2021/12/27 00:01:03;;;;;;;19.65;12.45;;;6.80;66.30;;;;;;5027808;28;20048;-70
2021/12/27 00:03:31;;;;;;;21.08;12.68;;;6.80;66.50;;;;;;5030975;28;20493;-71
2021/12/27 00:05:59;;;;;;;18.58;11.95;;;6.70;66.60;;;;;;5029953;28;20060;-71
2021/12/27 00:08:27;;;;;;;18.67;11.75;;;6.70;66.80;;;;;;5031124;28;20398;-72
2021/12/27 00:10:55;;;;;;;17.67;12.23;;;6.70;67.10;;;;;;5025635;28;20050;-71
2021/12/27 00:13:26;;;;;;;17.10;11.15;;;6.80;67.70;;;;;;5030340;28;20050;-71
2021/12/27 00:15:54;;;;;;;17.52;11.57;;;6.80;67.70;;;;;;5028324;28;20497;-71
2021/12/27 00:18:22;;;;;;;17.15;10.45;;;6.80;67.90;;;;;;5015953;28;20496;-71
2021/12/27 00:20:50;;;;;;;16.65;10.70;;;6.80;67.90;;;;;;5030484;28;20057;-71
2021/12/27 00:23:18;;;;;;;16.13;10.02;;;6.80;67.90;;;;;;5011305;28;20127;-72
2021/12/27 00:25:46;;;;;;;16.48;10.93;;;6.80;68.10;;;;;;5032149;28;20054;-72
2021/12/27 00:28:14;;;;;;;14.30;9.00;;;6.80;68.30;;;;;;5036419;28;20064;-71
2021/12/27 00:30:44;;;;;;;42.42;10.60;;;6.90;69.00;;;;;;5031666;28;20053;-72
2021/12/27 00:33:12;;;;;;;15.85;9.63;;;6.90;69.30;;;;;;5029100;28;20049;-72
2021/12/27 00:35:41;;;;;;;14.45;10.02;;;6.90;69.50;;;;;;5033432;28;20076;-72
2021/12/27 00:38:09;;;;;;;17.50;10.50;;;6.90;69.60;;;;;;5029976;28;20061;-72
2021/12/27 00:40:37;;;;;;;15.05;10.15;;;6.90;69.70;;;;;;5026185;28;20041;-70
2021/12/27 00:43:05;;;;;;;16.38;10.93;;;6.90;69.80;;;;;;5028981;28;20135;-70
2021/12/27 00:45:33;;;;;;;15.43;10.80;;;6.90;70.00;;;;;;5029184;28;20116;-72
2021/12/27 00:48:03;;;;;;;15.32;10.48;;;6.90;69.80;;;;;;5028191;28;20046;-71
2021/12/27 00:50:31;;;;;;;17.50;10.90;;;6.90;70.70;;;;;;5029196;28;20045;-71
2021/12/27 00:52:59;;;;;;;14.48;10.02;;;6.80;69.50;;;;;;5029232;28;20513;-71
2021/12/27 00:55:27;;;;;;;14.70;10.70;;;6.80;69.80;;;;;;5034363;28;20669;-71
2021/12/27 00:57:56;;;;;;;16.20;10.07;;;6.80;69.80;;;;;;5045907;28;20500;-71
2021/12/27 01:00:27;;;;;;;15.55;10.48;;;6.90;70.00;;;;;;5028684;28;20080;-71
2021/12/27 01:02:57;;;;;;;16.48;10.93;;;6.80;69.80;;;;;;5033810;28;20045;-71
2021/12/27 01:05:27;;;;;;;15.20;11.18;;;6.80;69.70;;;;;;5036452;28;20045;-71
2021/12/27 01:07:55;;;;;;;16.55;10.02;;;6.80;69.80;;;;;;5036351;28;20526;-71
2021/12/27 01:13:20;;;;;;;17.15;10.38;;;6.80;69.90;;;;;;4975368;28;20048;-70
2021/12/27 01:16:02;;;;;;;18.60;11.18;;;6.80;70.00;;;;;;5037462;28;20185;-71
2021/12/27 01:18:30;;;;;;;18.48;11.68;;;6.90;70.20;;;;;;5034406;28;20348;-71
2021/12/27 01:21:00;;;;;;;19.63;12.13;;;6.90;70.50;;;;;;5030647;28;20064;-71
2021/12/27 01:23:29;;;;;;;19.33;11.43;;;6.90;70.60;;;;;;5035124;28;20140;-71
2021/12/27 01:25:57;;;;;;;18.55;12.27;;;6.90;70.30;;;;;;5030379;28;20078;-71
2021/12/27 01:28:25;;;;;;;18.80;11.75;;;6.90;70.30;;;;;;5029531;28;20049;-71
2021/12/27 01:30:54;;;;;;;30.52;12.60;;;6.80;70.10;;;;;;5027655;28;20115;-71
2021/12/27 01:33:24;;;;;;;21.67;13.63;;;6.90;70.30;;;;;;5014407;28;20041;-71
2021/12/27 01:35:53;;;;;;;21.35;12.43;;;6.80;70.10;;;;;;5030536;28;20535;-71
2021/12/27 01:38:23;;;;;;;16.92;12.02;;;6.80;70.00;;;;;;5027640;28;20056;-71
2021/12/27 01:40:53;;;;;;;17.38;11.68;;;6.80;70.00;;;;;;5025916;28;20041;-71
2021/12/27 01:43:24;;;;;;;17.98;12.07;;;6.80;69.80;;;;;;5030214;28;20052;-70
2021/12/27 01:45:56;;;;;;;17.95;12.45;;;6.70;69.40;;;;;;5008282;28;20068;-69
2021/12/27 01:48:32;;;;;;;18.00;11.73;;;6.70;69.20;;;;;;5032014;28;20050;-69
2021/12/27 01:51:02;;;;;;;19.67;11.82;;;6.70;69.60;;;;;;5024385;28;20552;-70
2021/12/27 01:53:35;;;;;;;21.77;12.65;;;6.70;69.60;;;;;;5010871;28;20029;-70
2021/12/27 01:56:06;;;;;;;20.90;12.55;;;6.70;70.20;;;;;;5027979;28;20038;-71
2021/12/27 01:58:37;;;;;;;17.25;11.60;;;6.70;69.40;;;;;;5029008;28;20129;-70
2021/12/27 02:01:07;;;;;;;20.55;12.15;;;6.70;69.20;;;;;;5005181;28;20409;-70
2021/12/27 02:03:38;;;;;;;18.40;11.70;;;6.70;68.90;;;;;;5028094;28;20077;-71
2021/12/27 02:06:06;;;;;;;17.48;11.38;;;6.70;69.00;;;;;;5028400;28;20147;-70
2021/12/27 02:08:38;;;;;;;22.08;12.35;;;6.70;68.70;;;;;;5028226;28;20049;-70
2021/12/27 02:11:07;;;;;;;19.00;11.27;;;6.60;68.10;;;;;;5024333;28;20128;-71
2021/12/27 02:13:41;;;;;;;18.80;11.70;;;6.60;68.10;;;;;;5033367;28;20049;-70
2021/12/27 02:16:10;;;;;;;20.25;12.18;;;6.60;68.40;;;;;;5026276;28;20052;-71
2021/12/27 02:18:39;;;;;;;19.08;11.57;;;6.60;68.20;;;;;;5028168;28;20049;-70
2021/12/27 02:21:09;;;;;;;19.67;10.98;;;6.60;68.40;;;;;;5027470;28;20057;-70
2021/12/27 02:23:39;;;;;;;18.35;11.05;;;6.60;67.80;;;;;;5026203;28;20124;-70
2021/12/27 02:26:08;;;;;;;19.27;11.82;;;6.60;67.70;;;;;;5025834;28;20125;-70
2021/12/27 02:28:38;;;;;;;23.15;12.68;;;6.60;68.20;;;;;;5034089;28;20045;-71
2021/12/27 02:31:07;;;;;;;18.23;11.50;;;6.60;67.80;;;;;;5026316;28;20124;-71
2021/12/27 02:33:37;;;;;;;21.35;12.77;;;6.60;67.90;;;;;;5026066;28;20103;-70
2021/12/27 02:36:06;;;;;;;29.77;16.38;;;6.60;67.70;;;;;;5028560;28;20052;-70
2021/12/27 02:38:39;;;;;;;35.28;18.58;;;6.60;67.80;;;;;;5026963;28;20053;-69
2021/12/27 02:41:07;;;;;;;29.27;16.52;;;6.60;67.70;;;;;;5023298;28;20451;-70
2021/12/27 02:43:39;;;;;;;23.02;13.85;;;6.60;67.80;;;;;;5033817;28;20049;-71
2021/12/27 02:46:09;;;;;;;20.65;12.15;;;6.70;67.80;;;;;;5027710;28;20057;-70
2021/12/27 02:48:39;;;;;;;22.05;11.85;;;6.70;67.90;;;;;;5027469;28;20053;-70
2021/12/27 02:51:07;;;;;;;18.70;10.90;;;6.60;67.70;;;;;;5025349;28;20061;-70
2021/12/27 02:53:37;;;;;;;18.45;11.45;;;6.60;67.70;;;;;;5028269;28;20167;-70
2021/12/27 02:56:06;;;;;;;16.95;11.02;;;6.60;67.70;;;;;;5025460;28;20064;-71
2021/12/27 02:58:35;;;;;;;20.00;11.48;;;6.60;67.70;;;;;;5027937;28;20053;-71
2021/12/27 03:01:07;;;;;;;17.02;9.98;;;6.60;67.70;;;;;;5023258;28;20045;-71
2021/12/27 03:03:36;;;;;;;18.58;10.40;;;6.60;67.70;;;;;;5010524;28;20100;-70
2021/12/27 03:06:05;;;;;;;16.27;9.93;;;6.60;67.70;;;;;;5029467;28;20061;-71
2021/12/27 03:08:34;;;;;;;16.95;10.07;;;6.60;67.70;;;;;;5026278;28;20075;-71
2021/12/27 03:11:05;;;;;;;14.60;9.82;;;6.60;67.50;;;;;;5023009;28;20037;-70
2021/12/27 03:13:34;;;;;;;18.27;10.38;;;6.60;67.50;;;;;;5027648;28;20135;-70
2021/12/27 03:16:06;;;;;;;14.48;10.20;;;6.60;67.30;;;;;;5029136;28;20136;-70
2021/12/27 03:18:35;;;;;;;16.92;9.02;;;6.70;67.50;;;;;;5027497;28;20136;-70
2021/12/27 03:21:04;;;;;;;16.75;10.52;;;6.70;67.50;;;;;;5008355;28;20049;-70
2021/12/27 03:23:33;;;;;;;16.33;10.20;;;6.60;66.70;;;;;;5026274;28;20608;-70
2021/12/27 03:26:02;;;;;;;17.38;9.40;;;6.70;66.70;;;;;;5028799;28;20052;-70
2021/12/27 03:28:31;;;;;;;18.20;10.00;;;6.70;66.60;;;;;;5026387;28;20041;-70
2021/12/27 03:31:00;;;;;;;17.58;10.50;;;6.70;66.10;;;;;;5023038;28;20041;-70
2021/12/27 03:33:29;;;;;;;15.35;10.38;;;6.70;66.10;;;;;;5028107;28;20037;-70
2021/12/27 03:36:02;;;;;;;14.73;9.45;;;6.70;65.80;;;;;;5026225;28;20058;-70
2021/12/27 03:38:33;;;;;;;15.23;9.05;;;6.70;66.00;;;;;;5008917;28;20204;-70
2021/12/27 03:41:05;;;;;;;14.13;8.82;;;6.70;65.50;;;;;;5024976;28;20041;-70
2021/12/27 03:43:33;;;;;;;14.98;8.70;;;6.70;65.50;;;;;;5031956;28;20049;-70
2021/12/27 03:46:01;;;;;;;12.52;8.07;;;6.70;65.70;;;;;;5026102;28;20052;-70
2021/12/27 03:48:30;;;;;;;14.25;8.13;;;6.70;65.30;;;;;;5028474;28;20124;-70
2021/12/27 03:50:58;;;;;;;12.32;8.07;;;6.70;65.40;;;;;;5026622;28;20052;-70
2021/12/27 03:53:26;;;;;;;12.52;8.25;;;6.70;65.20;;;;;;5027851;28;20493;-70
2021/12/27 03:55:54;;;;;;;12.25;8.52;;;6.70;65.00;;;;;;5029764;28;20052;-70
2021/12/27 03:58:30;;;;;;;13.18;8.32;;;6.70;64.30;;;;;;5026526;28;20053;-71
2021/12/27 04:01:13;;;;;;;14.35;8.23;;;6.70;64.20;;;;;;5004671;28;20049;-71
2021/12/27 04:04:00;;;;;;;15.85;8.65;;;6.70;64.30;;;;;;5029135;28;20045;-70
2021/12/27 04:06:48;;;;;;;12.60;8.18;;;6.70;64.10;;;;;;5026772;28;20485;-70
2021/12/27 04:09:28;;;;;;;17.95;9.38;;;6.70;63.80;;;;;;5028925;28;20114;-71
2021/12/27 04:11:56;;;;;;;13.63;8.82;;;6.60;63.60;;;;;;5026614;28;20091;-71
2021/12/27 04:14:28;;;;;;;13.63;8.82;;;6.70;63.70;;;;;;5028496;28;20136;-71
2021/12/27 04:17:12;;;;;;;13.15;9.10;;;6.70;63.70;;;;;;5025158;28;20732;-70
2021/12/27 04:19:40;;;;;;;11.35;8.25;;;6.70;63.70;;;;;;5025427;28;20544;-70
2021/12/27 04:22:08;;;;;;;13.15;8.32;;;6.70;63.70;;;;;;5030082;28;20061;-70
2021/12/27 04:24:36;;;;;;;13.77;8.68;;;6.60;63.50;;;;;;5031970;28;20128;-70
2021/12/27 04:27:04;;;;;;;13.25;8.25;;;6.60;63.40;;;;;;5028772;28;20041;-70
2021/12/27 04:29:34;;;;;;;14.00;8.77;;;6.60;63.50;;;;;;5008229;28;20567;-70
2021/12/27 04:32:02;;;;;;;11.52;7.85;;;6.60;63.60;;;;;;5028266;28;20052;-70
2021/12/27 04:34:30;;;;;;;13.95;8.68;;;6.60;63.60;;;;;;5034729;28;20836;-70
2021/12/27 04:36:58;;;;;;;13.45;7.95;;;6.60;63.40;;;;;;5029237;28;20059;-71
2021/12/27 04:39:26;;;;;;;15.38;8.52;;;6.50;63.50;;;;;;5028606;28;20485;-70
2021/12/27 04:41:55;;;;;;;13.02;7.88;;;6.60;63.60;;;;;;5026690;28;20060;-71
2021/12/27 04:44:23;;;;;;;13.40;7.70;;;6.60;63.10;;;;;;5030601;28;20128;-70
2021/12/27 04:46:53;;;;;;;16.63;8.77;;;6.60;62.70;;;;;;5028942;28;20061;-71
2021/12/27 04:49:23;;;;;;;16.40;8.75;;;6.60;62.50;;;;;;5033650;28;20041;-71
2021/12/27 04:51:51;;;;;;;13.88;8.32;;;6.70;62.90;;;;;;5029738;28;20132;-71
2021/12/27 04:54:19;;;;;;;10.65;7.35;;;6.60;62.30;;;;;;5029225;28;20412;-71
2021/12/27 04:56:47;;;;;;;13.18;7.30;;;6.60;62.30;;;;;;5032843;28;20064;-71
2021/12/27 04:59:15;;;;;;;12.55;8.30;;;6.60;62.20;;;;;;5029934;28;20136;-71
2021/12/27 05:01:43;;;;;;;14.70;8.52;;;6.60;62.20;;;;;;5026955;28;20230;-71
2021/12/27 05:04:12;;;;;;;11.35;8.18;;;6.60;62.20;;;;;;5027607;28;20071;-71
2021/12/27 05:06:41;;;;;;;11.95;8.15;;;6.60;62.20;;;;;;5035014;28;20064;-70
2021/12/27 05:09:09;;;;;;;10.60;7.60;;;6.60;62.30;;;;;;5029763;28;20062;-71
2021/12/27 05:11:37;;;;;;;11.07;8.18;;;6.60;61.80;;;;;;5034242;28;20128;-71
2021/12/27 05:14:05;;;;;;;10.70;7.93;;;6.60;62.00;;;;;;5028567;28;20132;-70
2021/12/27 05:16:33;;;;;;;11.35;8.13;;;6.60;61.50;;;;;;5028931;28;20049;-70
2021/12/27 05:19:01;;;;;;;12.02;7.93;;;6.60;61.30;;;;;;5028181;28;20064;-71
2021/12/27 05:21:30;;;;;;;11.25;8.00;;;6.70;61.80;;;;;;5032471;28;20246;-70
2021/12/27 05:23:58;;;;;;;10.80;7.72;;;6.60;60.70;;;;;;5034283;28;20048;-71
2021/12/27 05:26:26;;;;;;;10.48;8.25;;;6.60;61.00;;;;;;5029685;28;20072;-71
2021/12/27 05:30:59;;;;;;;13.77;7.93;;;6.70;60.80;;;;;;5112979;27;259510;-69
2021/12/27 05:33:28;;;;;;;11.63;8.15;;;6.70;60.20;;;;;;5092368;28;20799;-70
2021/12/27 05:35:56;;;;;;;11.27;7.13;;;6.60;60.20;;;;;;5102927;27;20078;-71
2021/12/27 05:38:24;;;;;;;9.90;7.07;;;6.60;60.10;;;;;;5103503;28;20634;-70
2021/12/27 05:40:53;;;;;;;11.50;8.25;;;6.70;60.50;;;;;;5097917;28;20040;-70
2021/12/27 05:43:21;;;;;;;10.40;7.10;;;6.70;60.50;;;;;;5101130;28;20130;-70
2021/12/27 05:45:51;;;;;;;10.75;7.47;;;6.60;59.90;;;;;;5102572;28;20047;-70
2021/12/27 05:48:20;;;;;;;8.80;6.70;;;6.60;59.80;;;;;;5105485;28;20136;-70
2021/12/27 05:50:48;;;;;;;8.98;6.68;;;6.60;60.20;;;;;;5099001;28;20052;-70
2021/12/27 05:53:16;;;;;;;10.82;7.22;;;6.60;60.20;;;;;;5102583;28;20499;-70
2021/12/27 05:55:45;;;;;;;10.40;7.55;;;6.60;60.40;;;;;;5104345;28;20057;-70
2021/12/27 05:58:13;;;;;;;9.18;7.05;;;6.60;60.40;;;;;;5102776;28;20130;-70
2021/12/27 06:00:41;;;;;;;9.65;6.78;;;6.60;60.10;;;;;;5100667;28;20046;-70
2021/12/27 06:03:09;;;;;;;7.60;6.80;;;6.60;60.30;;;;;;5102800;28;20044;-70
2021/12/27 06:05:38;;;;;;;8.60;6.43;;;6.70;59.90;;;;;;5101970;28;20044;-70
2021/12/27 06:08:06;;;;;;;9.10;6.60;;;6.70;59.80;;;;;;5102117;28;20415;-70
2021/12/27 06:10:36;;;;;;;9.00;6.50;;;6.70;59.40;;;;;;5099847;28;20055;-70
2021/12/27 06:13:05;;;;;;;6.97;6.20;;;6.80;59.00;;;;;;5102975;28;20118;-70
2021/12/27 06:15:32;;;;;;;7.72;5.93;;;6.80;58.70;;;;;;5103277;28;20143;-70
2021/12/27 06:18:00;;;;;;;9.77;6.60;;;6.70;58.50;;;;;;5106266;28;20616;-70
2021/12/27 06:20:29;;;;;;;8.95;5.90;;;6.80;58.40;;;;;;5097237;28;20717;-70
2021/12/27 06:22:59;;;;;;;8.32;6.53;;;6.70;57.80;;;;;;5103288;28;20074;-70
2021/12/27 06:25:28;;;;;;;8.90;5.88;;;6.70;57.30;;;;;;5104686;28;20044;-69
2021/12/27 06:27:58;;;;;;;7.57;5.70;;;6.60;57.60;;;;;;5101095;28;20130;-70
2021/12/27 06:30:26;;;;;;;10.43;5.88;;;6.70;58.00;;;;;;5102054;28;20048;-70
2021/12/27 06:32:54;;;;;;;6.82;5.68;;;6.60;57.30;;;;;;5104010;28;20070;-70
2021/12/27 06:35:22;;;;;;;7.88;6.07;;;6.60;57.20;;;;;;5101381;28;20048;-70
2021/12/27 06:37:50;;;;;;;7.25;6.07;;;6.50;57.10;;;;;;5106717;28;20495;-71
2021/12/27 06:40:20;;;;;;;7.88;5.68;;;6.50;57.50;;;;;;5079412;28;20075;-70
2021/12/27 06:42:48;;;;;;;7.95;6.30;;;6.40;57.10;;;;;;5085755;28;20298;-70
2021/12/27 06:45:17;;;;;;;8.15;6.07;;;6.40;57.50;;;;;;5087585;28;20238;-70
2021/12/27 06:47:45;;;;;;;7.60;6.22;;;6.30;57.10;;;;;;5088015;28;20067;-70
2021/12/27 06:50:13;;;;;;;9.02;5.65;;;6.30;57.70;;;;;;5080946;28;20048;-70
2021/12/27 06:52:41;;;;;;;6.63;5.63;;;6.20;57.40;;;;;;5091342;28;20403;-70
2021/12/27 06:55:11;;;;;;;9.77;6.82;;;6.20;58.30;;;;;;5087174;28;20384;-70
2021/12/27 06:57:41;;;;;;;8.38;5.70;;;6.10;57.80;;;;;;5087504;28;20392;-70
2021/12/27 07:00:13;;;;;;;7.57;5.95;;;6.00;58.40;;;;;;5084576;28;20482;-69
2021/12/27 07:02:41;;;;;;;8.85;6.45;;;6.10;59.00;;;;;;5064660;28;20048;-70
2021/12/27 07:05:11;;;;;;;10.15;6.38;;;6.00;59.00;;;;;;5067972;28;20051;-70
2021/12/27 07:07:40;;;;;;;8.45;6.45;;;6.00;59.30;;;;;;5071728;28;20500;-70
2021/12/27 07:10:10;;;;;;;9.85;6.25;;;6.00;59.70;;;;;;5067918;28;20459;-70
2021/12/27 07:12:39;;;;;;;8.30;6.38;;;6.00;59.20;;;;;;5070873;28;20061;-70
2021/12/27 07:15:09;;;;;;;7.72;6.00;;;6.00;59.60;;;;;;5066854;28;20139;-69
2021/12/27 07:17:37;;;;;;;9.88;6.43;;;6.00;59.30;;;;;;5065780;28;20101;-70
2021/12/27 07:20:06;;;;;;;10.25;6.97;;;6.10;60.10;;;;;;5065443;28;20194;-70
2021/12/27 07:22:35;;;;;;;8.63;6.43;;;6.00;59.10;;;;;;5070859;28;20064;-70
2021/12/27 07:25:03;;;;;;;9.05;6.95;;;6.00;59.10;;;;;;5068781;28;20116;-70
2021/12/27 07:27:31;;;;;;;11.27;7.50;;;6.00;59.30;;;;;;5068248;28;20040;-69
2021/12/27 07:29:59;;;;;;;11.23;6.88;;;6.10;60.00;;;;;;5064224;28;20037;-70
2021/12/27 07:32:29;;;;;;;9.65;7.28;;;6.10;59.60;;;;;;5065548;28;20079;-70
2021/12/27 07:34:57;;;;;;;9.10;7.20;;;6.20;59.40;;;;;;5067831;28;20119;-70
2021/12/27 07:37:25;;;;;;;11.15;7.40;;;6.20;59.50;;;;;;5068053;28;20060;-69
2021/12/27 07:39:53;;;;;;;11.48;7.47;;;6.30;59.20;;;;;;5067057;28;20068;-70
2021/12/27 07:42:21;;;;;;;11.70;7.03;;;6.30;58.40;;;;;;5066207;28;20072;-70
2021/12/27 07:44:50;;;;;;;10.50;6.82;;;6.30;57.80;;;;;;5068478;28;20564;-70
2021/12/27 07:47:19;;;;;;;12.38;7.63;;;6.30;57.70;;;;;;5064615;28;20051;-70
2021/12/27 07:49:48;;;;;;;9.00;6.93;;;6.40;57.90;;;;;;5065742;28;20534;-70
2021/12/27 07:52:16;;;;;;;9.65;7.07;;;6.40;56.70;;;;;;5066268;28;20047;-70
2021/12/27 07:54:44;;;;;;;9.23;7.07;;;6.40;56.60;;;;;;5065690;28;20050;-71
2021/12/27 07:57:12;;;;;;;10.43;7.45;;;6.40;56.00;;;;;;5065717;28;20040;-70
2021/12/27 07:59:41;;;;;;;11.23;8.40;;;6.40;55.60;;;;;;5065504;28;20136;-70
2021/12/27 08:02:10;;;;;;;11.40;7.32;;;6.40;55.80;;;;;;5064371;28;20055;-70
2021/12/27 08:04:39;;;;;;;10.00;7.95;;;6.40;55.50;;;;;;5068893;28;20043;-70
2021/12/27 08:07:08;;;;;;;11.50;8.20;;;6.40;55.50;;;;;;5067377;28;20048;-71
2021/12/27 08:09:37;;;;;;;8.95;6.68;;;6.40;55.40;;;;;;5066470;28;20036;-70
2021/12/27 08:12:05;;;;;;;10.05;7.82;;;6.40;55.30;;;;;;5067298;28;20057;-70
2021/12/27 08:14:33;;;;;;;8.70;6.90;;;6.40;54.90;;;;;;5068141;28;20041;-70
2021/12/27 08:17:02;;;;;;;11.55;7.20;;;6.40;54.20;;;;;;5064111;28;20040;-70
2021/12/27 08:19:30;;;;;;;8.80;6.88;;;6.40;54.70;;;;;;5068828;28;20064;-70
2021/12/27 08:21:59;;;;;;;10.02;6.47;;;6.40;53.80;;;;;;5066294;28;20074;-70
2021/12/27 08:24:28;;;;;;;9.38;7.10;;;6.50;53.40;;;;;;5062515;28;20051;-70
2021/12/27 08:26:57;;;;;;;9.60;6.57;;;6.50;53.10;;;;;;5068693;28;20045;-70
2021/12/27 08:29:25;;;;;;;11.23;7.05;;;6.50;52.30;;;;;;5065666;28;20045;-69
2021/12/27 08:31:53;;;;;;;10.77;7.70;;;6.60;52.50;;;;;;5063536;28;20128;-71
2021/12/27 08:34:23;;;;;;;12.43;8.38;;;6.70;52.00;;;;;;5066872;28;20049;-71
2021/12/27 08:36:54;;;;;;;10.43;7.13;;;6.70;51.80;;;;;;5066425;28;20076;-70
2021/12/27 08:39:23;;;;;;;10.20;7.30;;;6.80;51.60;;;;;;5061951;28;20070;-70
2021/12/27 08:41:54;;;;;;;9.45;6.63;;;6.80;50.50;;;;;;5047853;28;20037;-70
2021/12/27 08:44:22;;;;;;;10.55;7.47;;;6.90;50.50;;;;;;5064427;28;20040;-70
2021/12/27 08:46:51;;;;;;;8.73;6.88;;;6.90;49.20;;;;;;5072880;28;20151;-70
2021/12/27 08:49:19;;;;;;;11.32;6.95;;;6.90;49.00;;;;;;5087764;28;20607;-70
2021/12/27 08:51:47;;;;;;;9.80;7.18;;;6.90;48.30;;;;;;5082888;28;20051;-71
2021/12/27 08:54:15;;;;;;;9.05;7.03;;;7.00;49.30;;;;;;5086760;28;21116;-69
2021/12/27 08:56:44;;;;;;;8.45;6.32;;;7.00;48.00;;;;;;5087366;28;20385;-70
2021/12/27 08:59:14;;;;;;;8.27;6.50;;;7.20;48.20;;;;;;5085399;28;20052;-70
2021/12/27 09:01:42;;;;;;;12.60;7.32;;;7.20;46.00;;;;;;5065457;28;20116;-69
2021/12/27 09:04:11;;;;;;;25.02;17.13;;;7.30;46.90;;;;;;5088253;28;20081;-70
2021/12/27 09:06:40;;;;;;;10.05;7.68;;;7.40;47.10;;;;;;5068551;28;20051;-70
2021/12/27 09:09:09;;;;;;;9.10;6.60;;;7.40;46.90;;;;;;5084033;28;20044;-70
2021/12/27 09:11:37;;;;;;;10.18;6.90;;;7.40;46.40;;;;;;5082244;28;20042;-71
2021/12/27 09:14:06;;;;;;;8.85;6.32;;;7.40;45.50;;;;;;5050161;28;20064;-70
2021/12/27 09:16:45;;;;;;;9.15;7.22;;;7.50;45.20;;;;;;5065330;28;20076;-70
2021/12/27 09:19:14;;;;;;;8.18;5.60;;;7.60;44.40;;;;;;5077015;28;20039;-70
2021/12/27 09:21:43;;;;;;;9.65;6.20;;;7.70;43.70;;;;;;5061020;28;20053;-70
2021/12/27 09:24:15;;;;;;;11.55;6.13;;;7.60;44.00;;;;;;5064454;28;20131;-70
2021/12/27 09:26:45;;;;;;;7.35;5.85;;;7.70;43.10;;;;;;5065764;28;20071;-70
2021/12/27 09:29:13;;;;;;;7.10;5.63;;;7.70;42.60;;;;;;5062534;28;20147;-70
2021/12/27 09:31:41;;;;;;;8.13;6.15;;;7.70;42.40;;;;;;5060203;28;20036;-70
2021/12/27 09:34:11;;;;;;;9.30;6.40;;;7.70;43.50;;;;;;5062778;28;20044;-70
2021/12/27 09:36:40;;;;;;;8.57;5.97;;;7.70;43.40;;;;;;5066177;28;20056;-70
2021/12/27 09:39:09;;;;;;;8.85;6.45;;;7.70;42.90;;;;;;5063185;28;20117;-70
2021/12/27 09:41:37;;;;;;;10.13;6.95;;;7.80;44.10;;;;;;5057484;28;20052;-70
2021/12/27 09:44:05;;;;;;;9.10;6.60;;;7.80;44.50;;;;;;5065990;28;20049;-69
2021/12/27 09:46:35;;;;;;;9.13;6.00;;;7.80;44.50;;;;;;5066570;28;20052;-69
2021/12/27 09:49:07;;;;;;;7.43;5.70;;;7.90;44.00;;;;;;5064087;28;20044;-70
2021/12/27 09:51:40;;;;;;;7.57;5.30;;;7.90;42.60;;;;;;5080994;28;20040;-69
2021/12/27 09:54:08;;;;;;;5.22;4.38;;;7.90;41.70;;;;;;5049779;28;20080;-70
2021/12/27 09:56:37;;;;;;;6.00;4.45;;;7.90;39.00;;;;;;5074056;28;20575;-69
2021/12/27 09:59:06;;;;;;;6.55;4.28;;;7.90;37.50;;;;;;5064250;28;20037;-70
2021/12/27 10:01:34;;;;;;;6.18;4.03;;;8.00;36.30;;;;;;5062991;28;20094;-69
2021/12/27 10:04:03;;;;;;;6.65;5.07;;;8.00;36.30;;;;;;5068303;28;20050;-70
2021/12/27 10:06:33;;;;;;;6.15;4.60;;;8.00;36.30;;;;;;5065299;28;20041;-70
2021/12/27 10:09:06;;;;;;;5.78;4.28;;;8.00;36.30;;;;;;5064256;28;20072;-70
2021/12/27 10:11:37;;;;;;;6.33;4.37;;;8.00;36.90;;;;;;5062903;28;20138;-71
2021/12/27 10:14:08;;;;;;;7.97;4.80;;;7.90;36.20;;;;;;5065371;28;20048;-69
2021/12/27 10:16:39;;;;;;;4.95;3.58;;;7.90;36.20;;;;;;5065161;28;20090;-71
2021/12/27 10:19:09;;;;;;;6.65;4.43;;;7.90;36.20;;;;;;5069442;28;20036;-70
2021/12/27 10:21:41;;;;;;;6.35;4.30;;;8.00;36.30;;;;;;5067180;28;20419;-69
2021/12/27 10:24:15;;;;;;;7.25;4.40;;;8.00;36.30;;;;;;5073520;28;20052;-69
2021/12/27 10:26:45;;;;;;;5.05;4.05;;;8.00;36.70;;;;;;5070758;28;20041;-69
2021/12/27 10:29:16;;;;;;;7.47;5.40;;;8.00;37.20;;;;;;5066521;28;20045;-70
2021/12/27 10:31:58;;;;;;;4.75;4.32;;;8.10;36.60;;;;;;5063660;28;20032;-69
2021/12/27 10:34:34;;;;;;;6.45;4.45;;;8.00;36.70;;;;;;5070098;28;20036;-69
2021/12/27 10:37:09;;;;;;;7.20;3.92;;;8.20;37.10;;;;;;5069855;28;20099;-70
2021/12/27 10:39:54;;;;;;;6.60;3.58;;;8.30;32.70;;;;;;5067353;28;20041;-69
2021/12/27 10:42:25;;;;;;;5.15;3.85;;;8.40;30.10;;;;;;5066114;28;20049;-69
2021/12/27 10:44:56;;;;;;;5.38;4.40;;;8.50;28.00;;;;;;5068184;28;20094;-69
2021/12/27 10:47:38;;;;;;;7.43;4.30;;;8.60;28.70;;;;;;5068544;28;20066;-70
2021/12/27 10:50:15;;;;;;;5.43;3.88;;;8.70;30.00;;;;;;5066976;28;20048;-69
2021/12/27 10:52:55;;;;;;;5.53;3.55;;;8.60;27.50;;;;;;5068113;28;20045;-70
2021/12/27 10:55:27;;;;;;;6.10;3.95;;;8.70;26.40;;;;;;5067648;28;20049;-70
2021/12/27 10:58:17;;;;;;;6.30;4.25;;;8.70;27.00;;;;;;5068261;28;20055;-70
2021/12/27 11:00:46;;;;;;;7.20;4.07;;;8.80;27.10;;;;;;5064431;28;20102;-70
2021/12/27 11:03:23;;;;;;;;;;;8.70;25.60;;;;;;5067694;28;20395;-70
2021/12/27 11:05:51;;;;;;;6.32;4.20;;;8.80;25.50;;;;;;5067698;28;19928;-69
2021/12/27 11:08:24;;;;;;;7.65;4.75;;;8.80;25.80;;;;;;5071544;28;20046;-70
2021/12/27 11:10:58;;;;;;;12.90;8.77;;;8.80;26.50;;;;;;5050222;28;20694;-70
2021/12/27 11:13:30;;;;;;;8.48;5.78;;;8.90;26.20;;;;;;5066673;28;20115;-70
2021/12/27 11:15:59;;;;;;;6.25;3.95;;;9.00;25.60;;;;;;5070550;28;20089;-69
2021/12/27 11:18:32;;;;;;;5.95;3.72;;;9.00;25.60;;;;;;5067820;28;20060;-72
2021/12/27 11:21:02;;;;;;;6.13;4.32;;;9.00;24.20;;;;;;5063916;28;20051;-70
2021/12/27 11:23:33;;;;;;;7.32;4.22;;;9.00;24.40;;;;;;5057816;28;20048;-70
2021/12/27 11:26:25;;;;;;;7.10;5.00;;;9.20;23.60;;;;;;5068066;28;20037;-70
2021/12/27 11:29:10;;;;;;;5.97;4.32;;;9.30;23.70;;;;;;5067200;28;20071;-70
2021/12/27 11:31:43;;;;;;;6.65;4.55;;;9.20;24.30;;;;;;5063313;28;20555;-70
2021/12/27 11:34:13;;;;;;;5.57;4.45;;;9.10;24.20;;;;;;5067215;28;20040;-70
2021/12/27 11:36:44;;;;;;;5.60;4.00;;;8.90;22.90;;;;;;5067902;28;20040;-69
2021/12/27 11:39:22;;;;;;;6.43;3.92;;;8.90;24.90;;;;;;5063749;28;20045;-69
2021/12/27 11:42:04;;;;;;;6.32;4.75;;;8.90;25.00;;;;;;5062615;28;20052;-70
2021/12/27 11:44:37;;;;;;;5.75;4.40;;;8.90;25.50;;;;;;5067260;28;20083;-69
2021/12/27 11:47:07;;;;;;;5.28;4.05;;;8.80;25.50;;;;;;5060399;28;20040;-69
2021/12/27 11:49:44;;;;;;;5.75;4.32;;;8.80;25.40;;;;;;5066975;28;20036;-69
2021/12/27 11:52:23;;;;;;;5.80;4.50;;;8.80;25.50;;;;;;5062542;28;20033;-70
2021/12/27 11:54:56;;;;;;;17.52;11.25;;;8.80;25.50;;;;;;5067766;28;20140;-69
2021/12/27 11:57:58;;;;;;;6.07;4.47;;;8.90;24.80;;;;;;5070120;28;20056;-70
2021/12/27 12:00:40;;;;;;;6.28;4.70;;;8.90;25.80;;;;;;5004930;28;20159;-68
2021/12/27 12:03:12;;;;;;;5.63;4.50;;;8.90;25.50;;;;;;5059018;28;20573;-70
2021/12/27 12:05:45;;;;;;;5.80;4.50;;;9.00;25.90;;;;;;5066877;28;20047;-69
2021/12/27 12:08:15;;;;;;;6.90;4.70;;;9.00;24.60;;;;;;5066847;28;20056;-70
2021/12/27 12:10:58;;;;;;;6.22;4.70;;;9.00;25.60;;;;;;5061216;28;20045;-69
2021/12/27 12:13:39;;;;;;;5.57;4.30;;;9.10;24.80;;;;;;5066121;28;20123;-69
2021/12/27 12:16:10;;;;;;;7.45;4.78;;;9.10;23.50;;;;;;5068023;28;20044;-69
2021/12/27 12:18:41;;;;;;;10.60;5.22;;;9.20;23.40;;;;;;5064990;28;20488;-69
2021/12/27 12:21:41;;;;;;;8.68;4.60;;;9.10;24.60;;;;;;5063604;28;20048;-70
2021/12/27 12:24:18;;;;;;;6.25;4.13;;;9.20;24.20;;;;;;5064247;28;20115;-70
2021/12/27 12:26:54;;;;;;;7.20;4.78;;;9.00;24.50;;;;;;5065361;28;20053;-69
2021/12/27 12:29:30;;;;;;;6.05;4.95;;;9.10;24.30;;;;;;5064852;28;20056;-69
2021/12/27 12:32:01;;;;;;;7.55;4.78;;;9.10;25.00;;;;;;5065834;28;21128;-70
2021/12/27 12:34:29;;;;;;;5.70;4.32;;;9.00;25.40;;;;;;5066901;28;20040;-69
2021/12/27 12:37:01;;;;;;;6.65;4.68;;;9.00;24.70;;;;;;5068189;28;20091;-69
2021/12/27 12:39:38;;;;;;;8.68;4.60;;;9.10;24.60;;;;;;5062058;28;20094;-69
2021/12/27 12:42:10;;;;;;;6.68;4.43;;;9.10;24.70;;;;;;5063634;28;20045;-69
2021/12/27 12:44:48;;;;;;;6.70;4.47;;;9.00;24.90;;;;;;5066277;28;20045;-69
2021/12/27 12:47:18;;;;;;;6.93;4.18;;;9.00;25.60;;;;;;5061968;28;20076;-70
2021/12/27 12:49:46;;;;;;;6.50;4.53;;;9.00;24.80;;;;;;5063702;28;20234;-69
2021/12/27 12:52:14;;;;;;;6.78;4.45;;;9.00;25.00;;;;;;5062363;28;20044;-68
2021/12/27 12:54:46;;;;;;;6.13;4.20;;;9.00;24.80;;;;;;5065134;28;20051;-70
2021/12/27 12:57:16;;;;;;;7.07;4.03;;;9.00;25.40;;;;;;5066031;28;20075;-69
2021/12/27 12:59:52;;;;;;;8.05;4.20;;;9.10;25.60;;;;;;5062733;28;20044;-69
2021/12/27 13:02:26;;;;;;;7.72;4.07;;;9.10;25.10;;;;;;5074738;28;20533;-69
2021/12/27 13:04:57;;;;;;;8.73;5.40;;;9.10;24.50;;;;;;5067327;28;20079;-69
2021/12/27 13:07:37;;;;;;;7.50;5.05;;;9.10;24.80;;;;;;5064544;28;20484;-69
2021/12/27 13:10:07;;;;;;;6.13;3.75;;;9.10;25.60;;;;;;5063185;28;20101;-69